Aérodrome :
LOGIN :

S'inscrire | Disclaimer

   EN    FR    IT 

 










Légende :    VFR   VFR Marginal   IFR   IFR Intensif   IFR Très Intensif
Visi : 
Plafond : 
>= 8 km
>= 3000ft
5 à 8 km
1000 à 3000 ft
1500m à 5 km
500 à 1000 ft
800 à 1500m
200 à 500 ft
< 800m
< 200 ft
Symboles :   Orages  Brouillard  Fortes neiges  Fortes précipitations  Vent > 20 kt
SIGMETs :   Divers  Orages  Givrage  Turbulence  Onde Orograph.  Cendres Volcan.







- Altitude de l'aérodrome : 129 ft
- Code IATA : ZPQ


ETHE - Rheine Bentlage

DERNIER METAR :
  • 280720Z 24006KT 9999 FEW012 SCT024 BKN040 06/02 Q1013 BLU FCST CANCEL

METARs EXPIRÉS :
  • 280620Z VRB03KT 9999 FEW018 SCT025 BKN040 05/01 Q1013 BLU BLU TEMPO WHT
  • 280520Z 21004KT 9999 BKN060 BKN090 04/01 Q1013 BLU BLU TEMPO WHT

TAF TAF ETHE
Valide du 28 à 08h jusqu'au 28 à 17h UTC


280715Z 2808/2817 25006KT 9999 NSW SCT015 BKN030
TEMPO 2808/2817 27008KT 5000 -SHRA SCT010 BKN020
Pas de NOTAMs connus pour ce terrain.



MET'MAP, la Météo Aéronautique d'un coup d'oeil ! - Copyright ORBIFLY Décembre 2007 - Disclaimer

ORBIFLY MET'MAP TEAM :

Programmation & Développement : Alexandra Zaïnal
Conception & Développement : Baudouin d'Aumeries
Co-Programmation & Développement : Marc-Olivier Méhu
Soutien technique & logistique : Manuel Goepfert

Contact : metmap@orbifly.com




SOURCES & CREDITS :

   NOAA